»·PEaware :: WAT202 KRNO-KSLC

WAT202 :: KRNO-KSLC

FLIGHT INFORMATION

Flight Status: Arrived
Operator:
Walker Air Transport
More flights by this operator :: More flights under this callsign
Pilot: Nick L. (7253)
Aircraft: BOEING 737-800
(B738)
More flights by this aircraft type
Origin: KRNO Reno/Tahoe Intl
United States
Destination: KSLC Salt Lake City Intl
United States
More flights between these airports :: More routes between these airports
Route: PVINE3 PYGOW BAM J154 BVL WAATS5
File this flight plan on PilotEdge
Remarks: RMK / SIMBRIEF
Altitude:
(Current/Filed)
37,000ft
Speed:
(Current/Filed)
449kts
Departed: 05-Apr-21 06:33 PM
Arrived: 05-Apr-21 07:33 PM
Distance/Time
Traveled:
365nm/1:00
Distance/Time
To Go:
Arrived

Flight Plot

Page will automatically refresh every two minutes.

Flight plan parsing failed; only flown route is shown


Map Options




Map Legend


Flown Route
Filed Route
Departure Airport
Arrival Airport
Navaid (VOR, NDB)
Fix

Horizontal Profiles

Position Reports

Time Latitude Longitude Heading Altitude Ground
Speed
05-Apr-21 18:13 39.505374 -119.772731 209 4418ft 0kts
05-Apr-21 18:14 39.505374 -119.772731 209 4418ft 0kts
05-Apr-21 18:15 39.505374 -119.772731 209 4418ft 0kts
05-Apr-21 18:16 39.505374 -119.772731 209 4418ft 0kts
05-Apr-21 18:17 39.505374 -119.772731 209 4418ft 0kts
05-Apr-21 18:18 39.505374 -119.772731 209 4418ft 0kts
05-Apr-21 18:19 39.505374 -119.772731 209 4417ft 0kts
05-Apr-21 18:20 39.505374 -119.772731 209 4417ft 0kts
05-Apr-21 18:21 39.505374 -119.772731 209 4417ft 0kts
05-Apr-21 18:22 39.505374 -119.772730 209 4417ft 0kts
05-Apr-21 18:23 39.505382 -119.772724 210 4417ft 1kts
05-Apr-21 18:23 39.505864 -119.772877 120 4417ft 2kts
05-Apr-21 18:25 39.505916 -119.773357 91 4417ft 0kts
05-Apr-21 18:26 39.505916 -119.773357 91 4417ft 0kts
05-Apr-21 18:26 39.505913 -119.773004 88 4417ft 3kts
05-Apr-21 18:27 39.505843 -119.771377 108 4417ft 4kts
05-Apr-21 18:29 39.500987 -119.771514 180 4414ft 31kts
05-Apr-21 18:30 39.492822 -119.771535 180 4411ft 30kts
05-Apr-21 18:31 39.489237 -119.770571 89 4413ft 2kts
05-Apr-21 18:31 39.489239 -119.769587 89 4414ft 12kts
05-Apr-21 18:32 39.493997 -119.766836 359 4410ft 96kts
05-Apr-21 18:33 39.537879 -119.767691 351 6123ft 174kts
05-Apr-21 18:34 39.590211 -119.765370 9 7774ft 223kts
05-Apr-21 18:35 39.651228 -119.712204 34 9920ft 293kts
05-Apr-21 18:36 39.722650 -119.639006 34 11345ft 370kts
05-Apr-21 18:37 39.798766 -119.544085 43 14197ft 388kts
05-Apr-21 18:38 39.872711 -119.439988 42 17001ft 396kts
05-Apr-21 18:40 39.961721 -119.314695 42 18992ft 413kts
05-Apr-21 18:40 40.016200 -119.213621 61 19007ft 421kts
05-Apr-21 18:41 40.057541 -119.067488 65 21022ft 438kts
05-Apr-21 18:42 40.096497 -118.915193 66 22922ft 451kts
05-Apr-21 18:43 40.136072 -118.756743 66 24609ft 466kts
05-Apr-21 18:44 40.176462 -118.593088 66 26080ft 482kts
05-Apr-21 18:45 40.217953 -118.423500 67 27393ft 498kts
05-Apr-21 18:46 40.260464 -118.248371 68 28662ft 511kts
05-Apr-21 18:47 40.303485 -118.069880 68 30127ft 515kts
05-Apr-21 18:48 40.346369 -117.890430 68 31504ft 519kts
05-Apr-21 18:49 40.389365 -117.709063 68 32838ft 522kts
05-Apr-21 18:50 40.432178 -117.526897 68 34142ft 524kts
05-Apr-21 18:51 40.474162 -117.347003 69 35921ft 511kts
05-Apr-21 18:52 40.515355 -117.169438 69 37006ft 509kts
05-Apr-21 18:53 40.555998 -116.989016 76 36993ft 518kts
05-Apr-21 18:54 40.574255 -116.801851 81 37082ft 518kts
05-Apr-21 18:55 40.587824 -116.613732 83 37081ft 518kts
05-Apr-21 18:56 40.599834 -116.424621 83 37082ft 519kts
05-Apr-21 18:57 40.611280 -116.235342 84 37001ft 519kts
05-Apr-21 18:58 40.622323 -116.045966 84 36963ft 519kts
05-Apr-21 18:59 40.632959 -115.857106 84 36963ft 519kts
05-Apr-21 19:00 40.643261 -115.668439 85 36963ft 517kts
05-Apr-21 19:01 40.653244 -115.479567 85 36961ft 517kts
05-Apr-21 19:02 40.662960 -115.290702 86 36964ft 517kts
05-Apr-21 19:03 40.672387 -115.102581 86 36962ft 516kts
05-Apr-21 19:04 40.681469 -114.913585 86 36939ft 516kts
05-Apr-21 19:05 40.688325 -114.724872 87 36943ft 516kts
05-Apr-21 19:06 40.696110 -114.536453 87 36945ft 516kts
05-Apr-21 19:07 40.704004 -114.348226 88 36947ft 512kts
05-Apr-21 19:08 40.711794 -114.161106 88 36940ft 514kts
05-Apr-21 19:09 40.719259 -113.973415 88 35045ft 517kts
05-Apr-21 19:10 40.726520 -113.782753 89 31368ft 528kts
05-Apr-21 19:11 40.727094 -113.593946 93 28578ft 509kts
05-Apr-21 19:12 40.726161 -113.410738 93 25761ft 491kts
05-Apr-21 19:13 40.725561 -113.234908 94 22999ft 470kts
05-Apr-21 19:14 40.724671 -113.066534 92 20307ft 450kts
05-Apr-21 19:15 40.723740 -112.905149 92 17641ft 433kts
05-Apr-21 19:16 40.721966 -112.749741 92 16837ft 408kts
05-Apr-21 19:17 40.720430 -112.598113 92 16389ft 399kts
05-Apr-21 19:18 40.693435 -112.455877 113 13227ft 402kts
05-Apr-21 19:19 40.683191 -112.314025 91 11990ft 361kts
05-Apr-21 19:20 40.680987 -112.190568 91 12002ft 330kts
05-Apr-21 19:21 40.657669 -112.078120 156 11999ft 298kts
05-Apr-21 19:22 40.584632 -112.048544 170 11369ft 260kts
05-Apr-21 19:23 40.514872 -112.032595 182 9999ft 251kts
05-Apr-21 19:24 40.445887 -112.024611 146 8610ft 256kts
05-Apr-21 19:25 40.460157 -111.961191 0 8012ft 233kts
05-Apr-21 19:26 40.523457 -111.966359 351 8023ft 213kts
05-Apr-21 19:27 40.578163 -111.972669 351 8013ft 195kts
05-Apr-21 19:28 40.632292 -111.978932 351 7089ft 191kts
05-Apr-21 19:29 40.681877 -111.984594 351 6097ft 157kts
05-Apr-21 19:30 40.723803 -111.989544 353 5275ft 146kts
05-Apr-21 19:31 40.764174 -111.994184 352 4495ft 145kts
05-Apr-21 19:32 40.792614 -111.997443 359 4236ft 27kts
05-Apr-21 19:33 40.795378 -111.995813 77 4236ft 8kts
05-Apr-21 19:34 40.790788 -111.993594 99 4236ft 27kts
05-Apr-21 19:35 40.789509 -111.986852 148 4236ft 17kts
05-Apr-21 19:36 40.788811 -111.985635 93 4236ft 0kts
05-Apr-21 19:37 40.788811 -111.985635 93 4236ft 0kts

Navigation Log

Ident Type
Flight plan parsing failed, navigation log unavailable